Terminal Aerodrome Forecast
Issued by NWS

Home | Current Version | Previous Version | Text Only | Print | Product List | Glossary On
Versions: 1 2 3 4 5 6 7 8 9 10 11 12 13 14 15
000
FTUS45 KABQ 230533
TAFLVS
TAF
KLVS 230533Z 2306/2406 04015G23KT P6SM SCT120
     FM231100 03006KT P6SM FEW120
     FM231700 06012KT P6SM SCT050
     FM232000 07015G25KT P6SM VCTS BKN050CB
     FM232300 08014KT P6SM BKN040
     FM240300 11009KT P6SM BKN030=

USA.gov is the U.S. government's official web portal to all federal, state and local government web resources and services.